createdAt,value
2018-05-21T00:00:24.380Z,0.00
2018-05-21T00:01:24.532Z,0.00
2018-05-21T00:02:24.684Z,0.00
2018-05-21T00:03:24.837Z,0.00
2018-05-21T00:04:24.992Z,0.00
2018-05-21T00:05:25.142Z,0.00
2018-05-21T00:06:25.293Z,0.00
2018-05-21T00:07:25.448Z,0.00
2018-05-21T00:08:25.602Z,0.00
2018-05-21T00:09:25.753Z,0.00
2018-05-21T00:10:25.905Z,0.00
2018-05-21T00:11:26.056Z,0.00
2018-05-21T00:12:26.209Z,0.00
2018-05-21T00:13:26.360Z,0.00
2018-05-21T00:14:26.516Z,0.00
2018-05-21T00:15:26.666Z,0.00
2018-05-21T00:16:26.817Z,0.00
2018-05-21T00:17:26.972Z,0.00
2018-05-21T00:18:27.126Z,0.00
2018-05-21T00:19:27.279Z,0.00
2018-05-21T00:20:27.433Z,0.00
2018-05-21T00:21:27.584Z,0.00
2018-05-21T00:22:27.736Z,0.00
2018-05-21T00:23:27.890Z,0.00
2018-05-21T00:24:28.047Z,0.00
2018-05-21T00:25:28.194Z,0.00
2018-05-21T00:26:28.350Z,0.00
2018-05-21T00:27:28.501Z,0.00
2018-05-21T00:28:28.653Z,0.00
2018-05-21T00:29:28.805Z,0.00
2018-05-21T00:30:28.958Z,0.00
2018-05-21T00:31:29.114Z,0.00
2018-05-21T00:32:29.263Z,0.00
2018-05-21T00:33:29.417Z,0.00
2018-05-21T00:34:29.571Z,0.00
2018-05-21T00:35:29.722Z,0.00
2018-05-21T00:36:29.863Z,0.00
2018-05-21T00:37:30.029Z,0.00
2018-05-21T00:38:30.175Z,0.00
2018-05-21T00:39:30.326Z,0.00
2018-05-21T00:40:30.480Z,0.00
2018-05-21T00:41:30.630Z,0.00
2018-05-21T00:42:30.783Z,0.00
2018-05-21T00:43:30.934Z,0.00
2018-05-21T00:44:31.087Z,0.00
2018-05-21T00:45:31.238Z,0.00
2018-05-21T00:46:31.389Z,0.00
2018-05-21T00:47:31.545Z,0.00
2018-05-21T00:48:31.693Z,0.00
2018-05-21T00:49:31.846Z,0.00
2018-05-21T00:50:32.000Z,0.00
2018-05-21T00:51:32.152Z,0.00
2018-05-21T00:52:32.302Z,0.00
2018-05-21T00:53:32.456Z,0.00
2018-05-21T00:54:32.611Z,0.00
2018-05-21T00:55:32.762Z,0.00
2018-05-21T00:56:32.916Z,0.00
2018-05-21T00:57:33.118Z,0.00
2018-05-21T00:58:33.221Z,0.00
2018-05-21T00:59:33.371Z,0.00
2018-05-21T01:00:33.530Z,0.00
2018-05-21T01:01:33.678Z,0.00
2018-05-21T01:02:33.829Z,0.00
2018-05-21T01:03:33.983Z,0.00
2018-05-21T01:04:34.138Z,0.00
2018-05-21T01:05:34.288Z,0.00
2018-05-21T01:06:34.440Z,0.00
2018-05-21T01:07:34.590Z,0.00
2018-05-21T01:08:34.747Z,0.00
2018-05-21T01:09:34.899Z,0.00
2018-05-21T01:10:35.046Z,0.00
2018-05-21T01:11:35.199Z,0.00
2018-05-21T01:12:35.352Z,0.00
2018-05-21T01:13:35.504Z,0.00
2018-05-21T01:14:35.657Z,0.00
2018-05-21T01:15:35.809Z,0.00
2018-05-21T01:16:35.959Z,0.00
2018-05-21T01:17:36.110Z,0.00
2018-05-21T01:18:36.272Z,0.00
2018-05-21T01:19:36.413Z,0.00
2018-05-21T01:20:36.566Z,0.00
2018-05-21T01:21:36.716Z,0.00
2018-05-21T01:22:36.868Z,0.00
2018-05-21T01:23:37.021Z,0.00
2018-05-21T01:24:37.175Z,0.00
2018-05-21T01:25:37.328Z,0.00
2018-05-21T01:26:37.479Z,0.00
2018-05-21T01:27:37.630Z,0.00
2018-05-21T01:28:37.782Z,0.00
2018-05-21T01:29:37.933Z,0.00
2018-05-21T01:30:38.092Z,0.00
2018-05-21T01:31:38.240Z,0.00
2018-05-21T01:32:38.390Z,0.00
2018-05-21T01:33:38.543Z,0.00
2018-05-21T01:34:38.694Z,0.00
2018-05-21T01:35:38.848Z,0.00
2018-05-21T01:36:39.001Z,0.00
2018-05-21T01:37:39.159Z,0.00
2018-05-21T01:38:39.311Z,0.00
2018-05-21T01:39:39.463Z,0.00
2018-05-21T01:40:39.615Z,0.00
2018-05-21T01:41:39.766Z,0.00
2018-05-21T01:42:39.921Z,0.00
2018-05-21T01:43:40.072Z,0.00
2018-05-21T01:44:40.220Z,0.00
2018-05-21T01:45:40.372Z,0.00
2018-05-21T01:46:40.525Z,0.00
2018-05-21T01:47:40.675Z,0.00
2018-05-21T01:48:40.829Z,0.00
2018-05-21T01:49:40.981Z,0.00
2018-05-21T01:50:41.133Z,0.00
2018-05-21T01:51:41.293Z,0.00
2018-05-21T01:52:41.436Z,0.00
2018-05-21T01:53:41.587Z,0.00
2018-05-21T01:54:41.743Z,0.00
2018-05-21T01:55:41.894Z,0.00
2018-05-21T01:56:42.056Z,0.00
2018-05-21T01:57:42.197Z,0.00
2018-05-21T01:58:42.351Z,0.00
2018-05-21T01:59:42.501Z,0.00
2018-05-21T02:00:42.655Z,0.00
2018-05-21T02:01:42.803Z,0.00
2018-05-21T02:02:42.955Z,0.00
2018-05-21T02:03:43.108Z,0.00
2018-05-21T02:04:43.258Z,0.00
2018-05-21T02:05:43.416Z,0.00
2018-05-21T02:06:43.563Z,0.00
2018-05-21T02:07:43.714Z,0.00
2018-05-21T02:08:43.870Z,0.00
2018-05-21T02:09:44.019Z,0.00
2018-05-21T02:10:44.171Z,0.00
2018-05-21T02:11:44.327Z,0.00
2018-05-21T02:12:44.474Z,0.00
2018-05-21T02:13:44.626Z,0.00
2018-05-21T02:14:44.778Z,0.00
2018-05-21T02:15:44.930Z,0.00
2018-05-21T02:16:45.084Z,0.00
2018-05-21T02:17:45.235Z,0.00
2018-05-21T02:18:45.388Z,0.00
2018-05-21T02:19:45.537Z,0.00
2018-05-21T02:20:45.687Z,0.00
2018-05-21T02:21:45.839Z,0.00
2018-05-21T02:22:45.989Z,0.00
2018-05-21T02:23:46.143Z,0.00
2018-05-21T02:24:46.291Z,0.00
2018-05-21T02:25:46.443Z,0.00
2018-05-21T02:26:46.598Z,0.00
2018-05-21T02:27:46.745Z,0.00
2018-05-21T02:28:46.897Z,0.00
2018-05-21T02:29:47.050Z,0.00
2018-05-21T02:30:47.201Z,0.00
2018-05-21T02:31:47.352Z,0.00
2018-05-21T02:32:47.504Z,0.00
2018-05-21T02:33:47.655Z,0.00
2018-05-21T02:34:47.808Z,0.00
2018-05-21T02:35:47.960Z,0.00
2018-05-21T02:36:48.109Z,0.00
2018-05-21T02:37:48.260Z,0.00
2018-05-21T02:38:48.411Z,0.00
2018-05-21T02:39:48.567Z,0.00
2018-05-21T02:40:48.717Z,0.00
2018-05-21T02:41:48.871Z,0.00
2018-05-21T02:42:49.022Z,0.00
2018-05-21T02:43:49.173Z,0.00
2018-05-21T02:44:49.323Z,0.00
2018-05-21T02:45:49.485Z,0.00
2018-05-21T02:46:49.638Z,0.00
2018-05-21T02:47:49.788Z,0.00
2018-05-21T02:48:49.940Z,0.00
2018-05-21T02:49:50.096Z,0.00
2018-05-21T02:50:50.242Z,0.00
2018-05-21T02:51:50.395Z,0.00
2018-05-21T02:52:50.543Z,0.00
2018-05-21T02:53:50.695Z,0.00
2018-05-21T02:54:50.847Z,0.00
2018-05-21T02:55:50.996Z,0.00
2018-05-21T02:56:51.148Z,0.00
2018-05-21T02:57:51.301Z,0.00
2018-05-21T02:58:51.451Z,0.00
2018-05-21T02:59:51.600Z,0.00
2018-05-21T03:00:51.750Z,0.00
2018-05-21T03:01:51.904Z,0.00
2018-05-21T03:02:52.050Z,0.00
2018-05-21T03:03:52.212Z,0.00
2018-05-21T03:04:52.356Z,0.00
2018-05-21T03:05:52.506Z,0.00
2018-05-21T03:06:52.679Z,0.00
2018-05-21T03:07:52.830Z,0.00
2018-05-21T03:08:52.982Z,0.00
2018-05-21T03:09:53.131Z,5.63
2018-05-21T03:10:53.284Z,5.63
2018-05-21T03:11:53.436Z,5.63
2018-05-21T03:12:53.587Z,5.63
2018-05-21T03:13:53.737Z,5.63
2018-05-21T03:14:53.888Z,5.63
2018-05-21T03:15:54.041Z,5.63
2018-05-21T03:16:54.193Z,11.25
2018-05-21T03:17:54.346Z,11.25
2018-05-21T03:18:54.498Z,11.25
2018-05-21T03:19:54.650Z,11.25
2018-05-21T03:20:54.802Z,16.88
2018-05-21T03:21:54.953Z,16.88
2018-05-21T03:22:55.105Z,16.88
2018-05-21T03:23:55.253Z,16.88
2018-05-21T03:24:55.404Z,22.50
2018-05-21T03:25:55.554Z,22.50
2018-05-21T03:26:55.704Z,22.50
2018-05-21T03:27:55.859Z,22.50
2018-05-21T03:28:56.011Z,28.13
2018-05-21T03:29:56.158Z,28.13
2018-05-21T03:30:56.310Z,28.13
2018-05-21T03:31:56.462Z,33.75
2018-05-21T03:32:56.607Z,33.75
2018-05-21T03:33:56.762Z,33.75
2018-05-21T03:34:56.910Z,39.38
2018-05-21T03:35:57.063Z,39.38
2018-05-21T03:36:57.211Z,45.00
2018-05-21T03:37:57.361Z,45.00
2018-05-21T03:38:57.511Z,45.00
2018-05-21T03:39:57.661Z,50.63
2018-05-21T03:40:57.810Z,50.63
2018-05-21T03:41:57.961Z,56.25
2018-05-21T03:42:58.114Z,56.25
2018-05-21T03:43:58.265Z,61.88
2018-05-21T03:44:58.419Z,61.88
2018-05-21T03:45:58.567Z,67.50
2018-05-21T03:46:58.718Z,67.50
2018-05-21T03:47:58.879Z,67.50
2018-05-21T03:48:59.026Z,73.13
2018-05-21T03:49:59.176Z,73.13
2018-05-21T03:50:59.327Z,78.75
2018-05-21T03:51:59.478Z,78.75
2018-05-21T03:52:59.628Z,84.38
2018-05-21T03:53:59.777Z,84.38
2018-05-21T03:54:59.940Z,90.00
2018-05-21T03:56:00.090Z,90.00
2018-05-21T03:57:00.252Z,95.63
2018-05-21T03:58:00.395Z,95.63
2018-05-21T03:59:00.547Z,101.25
2018-05-21T04:00:00.695Z,101.25
2018-05-21T04:01:00.847Z,106.88
2018-05-21T04:02:00.999Z,106.88
2018-05-21T04:03:01.149Z,112.50
2018-05-21T04:04:01.299Z,112.50
2018-05-21T04:05:01.453Z,118.13
2018-05-21T04:06:01.601Z,118.13
2018-05-21T04:07:01.753Z,123.75
2018-05-21T04:08:01.910Z,123.75
2018-05-21T04:09:02.053Z,129.38
2018-05-21T04:10:02.207Z,129.38
2018-05-21T04:11:02.359Z,135.00
2018-05-21T04:12:02.541Z,135.00
2018-05-21T04:13:02.669Z,140.63
2018-05-21T04:14:02.818Z,140.63
2018-05-21T04:15:02.970Z,146.25
2018-05-21T04:16:03.119Z,146.25
2018-05-21T04:17:03.271Z,151.88
2018-05-21T04:18:03.422Z,151.88
2018-05-21T04:19:03.575Z,157.50
2018-05-21T04:20:03.723Z,157.50
2018-05-21T04:21:03.876Z,163.13
2018-05-21T04:22:04.027Z,163.13
2018-05-21T04:23:04.178Z,168.75
2018-05-21T04:24:04.330Z,168.75
2018-05-21T04:25:04.481Z,174.38
2018-05-21T04:26:04.632Z,174.38
2018-05-21T04:27:04.785Z,174.38
2018-05-21T04:28:04.937Z,180.00
2018-05-21T04:29:05.089Z,180.00
2018-05-21T04:30:05.240Z,185.63
2018-05-21T04:31:05.390Z,185.63
2018-05-21T04:32:05.542Z,191.25
2018-05-21T04:33:05.695Z,191.25
2018-05-21T04:34:05.848Z,191.25
2018-05-21T04:35:05.999Z,196.88
2018-05-21T04:36:06.155Z,196.88
2018-05-21T04:37:06.305Z,202.50
2018-05-21T04:38:06.455Z,202.50
2018-05-21T04:39:06.610Z,208.13
2018-05-21T04:40:06.761Z,208.13
2018-05-21T04:41:06.912Z,208.13
2018-05-21T04:42:07.066Z,213.75
2018-05-21T04:43:07.226Z,213.75
2018-05-21T04:44:07.375Z,219.38
2018-05-21T04:45:07.530Z,219.38
2018-05-21T04:46:07.683Z,219.38
2018-05-21T04:47:07.833Z,225.00
2018-05-21T04:48:07.985Z,225.00
2018-05-21T04:49:08.137Z,225.00
2018-05-21T04:50:08.293Z,230.63
2018-05-21T04:51:08.442Z,230.63
2018-05-21T04:52:08.593Z,236.25
2018-05-21T04:53:08.744Z,236.25
2018-05-21T04:54:08.905Z,236.25
2018-05-21T04:55:09.053Z,241.88
2018-05-21T04:56:09.208Z,241.88
2018-05-21T04:57:09.360Z,247.50
2018-05-21T04:58:09.509Z,247.50
2018-05-21T04:59:09.662Z,253.13
2018-05-21T05:00:09.815Z,253.13
2018-05-21T05:01:09.969Z,258.75
2018-05-21T05:02:10.122Z,258.75
2018-05-21T05:03:10.271Z,258.75
2018-05-21T05:04:10.425Z,264.38
2018-05-21T05:05:10.576Z,264.38
2018-05-21T05:06:10.729Z,270.00
2018-05-21T05:07:10.931Z,270.00
2018-05-21T05:08:11.032Z,275.63
2018-05-21T05:09:11.187Z,275.63
2018-05-21T05:10:11.338Z,281.25
2018-05-21T05:11:11.491Z,281.25
2018-05-21T05:12:11.645Z,286.88
2018-05-21T05:13:11.797Z,286.88
2018-05-21T05:14:11.951Z,286.88
2018-05-21T05:15:12.105Z,292.50
2018-05-21T05:16:12.256Z,292.50
2018-05-21T05:17:12.413Z,298.13
2018-05-21T05:18:12.566Z,298.13
2018-05-21T05:19:12.714Z,298.13
2018-05-21T05:20:12.868Z,303.75
2018-05-21T05:21:13.105Z,303.75
2018-05-21T05:22:13.170Z,303.75
2018-05-21T05:23:13.329Z,309.38
2018-05-21T05:24:13.477Z,309.38
2018-05-21T05:25:13.629Z,309.38
2018-05-21T05:26:13.780Z,315.00
2018-05-21T05:27:13.931Z,315.00
2018-05-21T05:28:14.084Z,315.00
2018-05-21T05:29:14.236Z,320.63
2018-05-21T05:30:14.391Z,320.63
2018-05-21T05:31:14.548Z,320.63
2018-05-21T05:32:14.694Z,326.25
2018-05-21T05:33:14.847Z,326.25
2018-05-21T05:34:15.000Z,326.25
2018-05-21T05:35:15.152Z,326.25
2018-05-21T05:36:15.308Z,326.25
2018-05-21T05:37:15.462Z,331.88
2018-05-21T05:38:15.619Z,331.88
2018-05-21T05:39:15.768Z,331.88
2018-05-21T05:40:15.923Z,331.88
2018-05-21T05:41:16.080Z,337.50
2018-05-21T05:42:16.229Z,337.50
2018-05-21T05:43:16.381Z,337.50
2018-05-21T05:44:16.539Z,337.50
2018-05-21T05:45:16.691Z,343.13
2018-05-21T05:46:16.842Z,343.13
2018-05-21T05:47:16.999Z,343.13
2018-05-21T05:48:17.149Z,343.13
2018-05-21T05:49:17.302Z,343.13
2018-05-21T05:50:17.456Z,348.75
2018-05-21T05:51:17.609Z,348.75
2018-05-21T05:52:17.769Z,348.75
2018-05-21T05:53:17.920Z,348.75
2018-05-21T05:54:18.070Z,348.75
2018-05-21T05:55:18.226Z,348.75
2018-05-21T05:56:18.375Z,354.38
2018-05-21T05:57:18.521Z,354.38
2018-05-21T05:58:18.672Z,354.38
2018-05-21T05:59:18.828Z,354.38
2018-05-21T06:00:18.980Z,354.38
2018-05-21T06:01:19.136Z,354.38
2018-05-21T06:02:19.288Z,360.00
2018-05-21T06:03:19.444Z,360.00
2018-05-21T06:04:19.617Z,360.00
2018-05-21T06:05:19.754Z,360.00
2018-05-21T06:06:19.907Z,360.00
2018-05-21T06:07:20.060Z,360.00
2018-05-21T06:08:20.223Z,360.00
2018-05-21T06:09:20.366Z,360.00
2018-05-21T06:10:20.518Z,365.63
2018-05-21T06:11:20.674Z,365.63
2018-05-21T06:12:20.826Z,365.63
2018-05-21T06:13:20.981Z,365.63
2018-05-21T06:14:21.133Z,365.63
2018-05-21T06:15:21.289Z,365.63
2018-05-21T06:16:21.448Z,365.63
2018-05-21T06:17:21.601Z,365.63
2018-05-21T06:18:21.748Z,365.63
2018-05-21T06:19:21.902Z,371.25
2018-05-21T06:20:22.057Z,371.25
2018-05-21T06:21:22.235Z,371.25
2018-05-21T06:22:22.362Z,371.25
2018-05-21T06:23:22.532Z,371.25
2018-05-21T06:24:22.668Z,371.25
2018-05-21T06:25:22.832Z,371.25
2018-05-21T06:26:22.987Z,371.25
2018-05-21T06:27:23.142Z,371.25
2018-05-21T06:28:23.293Z,371.25
2018-05-21T06:29:23.450Z,376.88
2018-05-21T06:30:23.605Z,376.88
2018-05-21T06:31:23.757Z,376.88
2018-05-21T06:32:23.911Z,376.88
2018-05-21T06:33:24.088Z,376.88
2018-05-21T06:34:24.299Z,376.88
2018-05-21T06:35:24.369Z,376.88
2018-05-21T06:36:24.527Z,376.88
2018-05-21T06:37:24.669Z,376.88
2018-05-21T06:38:24.828Z,376.88
2018-05-21T06:39:24.976Z,376.88
2018-05-21T06:40:25.133Z,376.88
2018-05-21T06:41:25.289Z,376.88
2018-05-21T06:42:25.442Z,382.50
2018-05-21T06:43:25.603Z,382.50
2018-05-21T06:44:25.755Z,382.50
2018-05-21T06:45:25.909Z,382.50
2018-05-21T06:46:26.063Z,382.50
2018-05-21T06:47:26.217Z,382.50
2018-05-21T06:48:26.373Z,382.50
2018-05-21T06:49:26.528Z,382.50
2018-05-21T06:50:26.682Z,382.50
2018-05-21T06:51:26.839Z,382.50
2018-05-21T06:52:26.993Z,382.50
2018-05-21T06:53:27.146Z,382.50
2018-05-21T06:54:27.305Z,382.50
2018-05-21T06:55:27.458Z,382.50
2018-05-21T06:56:27.611Z,382.50
2018-05-21T06:57:27.768Z,382.50
2018-05-21T06:58:27.923Z,382.50
2018-05-21T06:59:28.078Z,382.50
2018-05-21T07:00:28.233Z,382.50
2018-05-21T07:01:28.388Z,382.50
2018-05-21T07:02:28.544Z,382.50
2018-05-21T07:03:28.698Z,388.13
2018-05-21T07:04:28.852Z,388.13
2018-05-21T07:05:29.007Z,388.13
2018-05-21T07:06:29.165Z,388.13
2018-05-21T07:07:29.318Z,388.13
2018-05-21T07:08:29.471Z,388.13
2018-05-21T07:09:29.657Z,388.13
2018-05-21T07:10:29.778Z,388.13
2018-05-21T07:11:29.933Z,388.13
2018-05-21T07:12:30.089Z,388.13
2018-05-21T07:13:30.268Z,388.13
2018-05-21T07:14:30.398Z,388.13
2018-05-21T07:15:30.561Z,388.13
2018-05-21T07:16:30.715Z,388.13
2018-05-21T07:17:30.859Z,388.13
2018-05-21T07:18:31.015Z,388.13
2018-05-21T07:19:31.170Z,388.13
2018-05-21T07:20:31.325Z,388.13
2018-05-21T07:21:31.482Z,388.13
2018-05-21T07:22:31.642Z,388.13
2018-05-21T07:23:31.800Z,388.13
2018-05-21T07:24:32.020Z,388.13
2018-05-21T07:25:32.111Z,388.13
2018-05-21T07:26:32.263Z,388.13
2018-05-21T07:27:32.418Z,388.13
2018-05-21T07:28:32.575Z,388.13
2018-05-21T07:29:32.729Z,393.75
2018-05-21T07:30:32.884Z,393.75
2018-05-21T07:31:33.138Z,393.75
2018-05-21T07:32:33.198Z,393.75
2018-05-21T07:33:33.353Z,393.75
2018-05-21T07:34:33.508Z,393.75
2018-05-21T07:35:33.668Z,393.75
2018-05-21T07:36:33.819Z,393.75
2018-05-21T07:37:33.975Z,393.75
2018-05-21T07:38:34.131Z,393.75
2018-05-21T07:39:34.288Z,393.75
2018-05-21T07:40:34.445Z,393.75
2018-05-21T07:41:34.600Z,393.75
2018-05-21T07:42:34.766Z,393.75
2018-05-21T07:43:34.913Z,393.75
2018-05-21T07:44:35.069Z,393.75
2018-05-21T07:45:35.227Z,393.75
2018-05-21T07:46:35.382Z,399.38
2018-05-21T07:47:35.562Z,399.38
2018-05-21T07:48:35.695Z,399.38
2018-05-21T07:49:35.850Z,399.38
2018-05-21T07:50:36.007Z,399.38
2018-05-21T07:51:36.224Z,399.38
2018-05-21T07:52:36.319Z,399.38
2018-05-21T07:53:36.482Z,399.38
2018-05-21T07:54:36.634Z,399.38
2018-05-21T07:55:36.792Z,399.38
2018-05-21T07:56:36.948Z,399.38
2018-05-21T07:57:37.130Z,399.38
2018-05-21T07:58:37.258Z,399.38
2018-05-21T07:59:37.419Z,399.38
2018-05-21T08:00:37.574Z,399.38
2018-05-21T08:01:37.731Z,399.38
2018-05-21T08:02:37.887Z,399.38
2018-05-21T08:03:38.047Z,399.38
2018-05-21T08:04:38.203Z,399.38
2018-05-21T08:05:38.361Z,399.38
2018-05-21T08:06:38.518Z,405.00
2018-05-21T08:07:38.676Z,405.00
2018-05-21T08:08:38.838Z,405.00
2018-05-21T08:09:38.997Z,405.00
2018-05-21T08:10:39.156Z,405.00
2018-05-21T08:11:39.312Z,405.00
2018-05-21T08:12:39.469Z,405.00
2018-05-21T08:13:39.627Z,405.00
2018-05-21T08:14:39.798Z,405.00
2018-05-21T08:15:39.943Z,405.00
2018-05-21T08:16:40.107Z,405.00
2018-05-21T08:17:40.257Z,405.00
2018-05-21T08:18:40.420Z,405.00
2018-05-21T08:19:40.574Z,410.63
2018-05-21T08:20:40.725Z,410.63
2018-05-21T08:21:40.883Z,405.00
2018-05-21T08:22:41.042Z,405.00
2018-05-21T08:23:41.201Z,405.00
2018-05-21T08:24:41.357Z,410.63
2018-05-21T08:25:41.512Z,410.63
2018-05-21T08:26:41.683Z,410.63
2018-05-21T08:27:41.828Z,410.63
2018-05-21T08:28:41.984Z,410.63
2018-05-21T08:29:42.147Z,410.63
2018-05-21T08:30:42.301Z,410.63
2018-05-21T08:31:42.459Z,410.63
2018-05-21T08:32:42.622Z,410.63
2018-05-21T08:33:42.779Z,410.63
2018-05-21T08:34:42.934Z,410.63
2018-05-21T08:35:43.091Z,416.25
2018-05-21T08:36:43.254Z,416.25
2018-05-21T08:37:43.409Z,410.63
2018-05-21T08:38:43.565Z,416.25
2018-05-21T08:39:43.724Z,416.25
2018-05-21T08:40:43.882Z,416.25
2018-05-21T08:41:44.042Z,416.25
2018-05-21T08:42:44.254Z,416.25
2018-05-21T08:43:44.357Z,416.25
2018-05-21T08:44:44.516Z,416.25
2018-05-21T08:45:44.673Z,416.25
2018-05-21T08:46:44.831Z,421.88
2018-05-21T08:47:44.991Z,421.88
2018-05-21T08:48:45.211Z,421.88
2018-05-21T08:49:45.307Z,421.88
2018-05-21T08:50:45.465Z,421.88
2018-05-21T08:51:45.623Z,421.88
2018-05-21T08:52:45.824Z,421.88
2018-05-21T08:53:45.984Z,421.88
2018-05-21T08:54:46.147Z,427.50
2018-05-21T08:55:46.305Z,427.50
2018-05-21T08:56:46.463Z,427.50
2018-05-21T08:57:46.623Z,427.50
2018-05-21T08:58:46.881Z,427.50
2018-05-21T08:59:46.940Z,427.50
2018-05-21T09:00:47.098Z,427.50
2018-05-21T09:01:47.257Z,427.50
2018-05-21T09:02:47.414Z,427.50
2018-05-21T09:03:47.574Z,433.13
2018-05-21T09:04:47.846Z,433.13
2018-05-21T09:05:47.890Z,433.13
2018-05-21T09:06:48.049Z,433.13
2018-05-21T09:07:48.208Z,433.13
2018-05-21T09:08:48.371Z,433.13
2018-05-21T09:09:48.527Z,433.13
2018-05-21T09:10:48.686Z,433.13
2018-05-21T09:11:48.845Z,433.13
2018-05-21T09:12:49.003Z,433.13
2018-05-21T09:13:49.165Z,433.13
2018-05-21T09:14:49.323Z,438.75
2018-05-21T09:15:49.482Z,438.75
2018-05-21T09:16:49.643Z,438.75
2018-05-21T09:17:49.803Z,438.75
2018-05-21T09:18:49.963Z,438.75
2018-05-21T09:19:50.122Z,438.75
2018-05-21T09:20:50.283Z,438.75
2018-05-21T09:21:50.442Z,438.75
2018-05-21T09:22:50.601Z,438.75
2018-05-21T09:23:50.762Z,444.38
2018-05-21T09:24:50.922Z,444.38
2018-05-21T09:25:51.081Z,444.38
2018-05-21T09:26:51.242Z,444.38
2018-05-21T09:27:51.405Z,444.38
2018-05-21T09:28:51.568Z,444.38
2018-05-21T09:29:51.724Z,444.38
2018-05-21T09:30:51.890Z,450.00
2018-05-21T09:31:52.048Z,450.00
2018-05-21T09:32:52.207Z,450.00
2018-05-21T09:33:52.369Z,450.00
2018-05-21T09:34:52.529Z,450.00
2018-05-21T09:35:52.697Z,450.00
2018-05-21T09:36:52.884Z,450.00
2018-05-21T09:37:53.004Z,450.00
2018-05-21T09:38:53.170Z,450.00
2018-05-21T09:39:53.327Z,450.00
2018-05-21T09:40:53.484Z,455.63
2018-05-21T09:41:53.684Z,455.63
2018-05-21T09:42:53.804Z,455.63
2018-05-21T09:43:53.964Z,455.63
2018-05-21T09:44:54.124Z,455.63
2018-05-21T09:45:54.285Z,455.63
2018-05-21T09:46:54.454Z,455.63
2018-05-21T09:47:54.607Z,455.63
2018-05-21T09:48:54.765Z,455.63
2018-05-21T09:49:54.926Z,455.63
2018-05-21T09:50:55.088Z,455.63
2018-05-21T09:51:55.251Z,455.63
2018-05-21T09:52:55.412Z,455.63
2018-05-21T09:53:55.571Z,455.63
2018-05-21T09:54:55.732Z,461.25
2018-05-21T09:55:55.889Z,461.25
2018-05-21T09:56:56.052Z,461.25
2018-05-21T09:57:56.213Z,461.25
2018-05-21T09:58:56.374Z,461.25
2018-05-21T09:59:56.538Z,461.25
2018-05-21T10:00:56.697Z,461.25
2018-05-21T10:01:56.859Z,461.25
2018-05-21T10:02:57.020Z,461.25
2018-05-21T10:03:57.180Z,461.25
2018-05-21T10:04:57.338Z,466.88
2018-05-21T10:05:57.500Z,466.88
2018-05-21T10:06:57.659Z,461.25
2018-05-21T10:07:57.821Z,461.25
2018-05-21T10:08:57.983Z,461.25
2018-05-21T10:09:58.145Z,466.88
2018-05-21T10:10:58.305Z,466.88
2018-05-21T10:11:58.469Z,466.88
2018-05-21T10:12:58.626Z,466.88
2018-05-21T10:13:58.790Z,466.88
2018-05-21T10:14:58.947Z,466.88
2018-05-21T10:15:59.107Z,466.88
2018-05-21T10:16:59.271Z,466.88
2018-05-21T10:17:59.428Z,472.50
2018-05-21T10:18:59.588Z,472.50
2018-05-21T10:19:59.749Z,472.50
2018-05-21T10:20:59.911Z,472.50
2018-05-21T10:22:00.071Z,472.50
2018-05-21T10:23:00.229Z,472.50
2018-05-21T10:24:00.394Z,478.13
2018-05-21T10:25:00.555Z,472.50
2018-05-21T10:26:00.737Z,478.13
2018-05-21T10:27:00.873Z,478.13
2018-05-21T10:28:01.035Z,478.13
2018-05-21T10:29:01.199Z,478.13
2018-05-21T10:30:01.363Z,478.13
2018-05-21T10:31:01.521Z,478.13
2018-05-21T10:32:01.744Z,478.13
2018-05-21T10:33:01.850Z,478.13
2018-05-21T10:34:02.014Z,478.13
2018-05-21T10:35:02.170Z,478.13
2018-05-21T10:36:02.332Z,483.75
2018-05-21T10:37:02.554Z,483.75
2018-05-21T10:38:02.651Z,483.75
2018-05-21T10:39:02.813Z,483.75
2018-05-21T10:40:02.976Z,483.75
2018-05-21T10:41:03.138Z,483.75
2018-05-21T10:42:03.307Z,483.75
2018-05-21T10:43:03.479Z,483.75
2018-05-21T10:44:03.643Z,483.75
2018-05-21T10:45:03.801Z,483.75
2018-05-21T10:46:03.967Z,489.38
2018-05-21T10:47:04.130Z,489.38
2018-05-21T10:48:04.287Z,489.38
2018-05-21T10:49:04.447Z,489.38
2018-05-21T10:50:04.613Z,489.38
2018-05-21T10:51:04.774Z,489.38
2018-05-21T10:52:04.933Z,489.38
2018-05-21T10:53:05.097Z,495.00
2018-05-21T10:54:05.258Z,495.00
2018-05-21T10:55:05.421Z,495.00
2018-05-21T10:56:05.585Z,495.00
2018-05-21T10:57:05.743Z,495.00
2018-05-21T10:58:05.906Z,495.00
2018-05-21T10:59:06.069Z,495.00
2018-05-21T11:00:06.227Z,495.00
2018-05-21T11:01:06.389Z,500.63
2018-05-21T11:02:06.550Z,500.63
2018-05-21T11:03:06.712Z,500.63
2018-05-21T11:04:06.879Z,500.63
2018-05-21T11:05:07.046Z,500.63
2018-05-21T11:06:07.205Z,500.63
2018-05-21T11:07:07.374Z,500.63
2018-05-21T11:08:07.530Z,500.63
2018-05-21T11:09:07.693Z,500.63
2018-05-21T11:10:07.858Z,500.63
2018-05-21T11:11:08.020Z,500.63
2018-05-21T11:12:08.332Z,506.25
2018-05-21T11:13:08.346Z,506.25
2018-05-21T11:14:08.506Z,506.25
2018-05-21T11:15:08.667Z,506.25
2018-05-21T11:16:08.828Z,506.25
2018-05-21T11:17:08.992Z,506.25
2018-05-21T11:18:09.150Z,511.88
2018-05-21T11:19:09.314Z,511.88
2018-05-21T11:20:09.473Z,511.88
2018-05-21T11:21:09.634Z,511.88
2018-05-21T11:22:09.797Z,511.88
2018-05-21T11:23:09.960Z,511.88
2018-05-21T11:24:10.122Z,511.88
2018-05-21T11:25:10.281Z,517.50
2018-05-21T11:26:10.445Z,517.50
2018-05-21T11:27:10.605Z,517.50
2018-05-21T11:28:10.765Z,517.50
2018-05-21T11:29:10.928Z,517.50
2018-05-21T11:30:11.092Z,523.13
2018-05-21T11:31:11.256Z,523.13
2018-05-21T11:32:11.419Z,523.13
2018-05-21T11:33:11.578Z,523.13
2018-05-21T11:34:11.741Z,523.13
2018-05-21T11:35:11.910Z,523.13
2018-05-21T11:36:12.069Z,523.13
2018-05-21T11:37:12.235Z,528.75
2018-05-21T11:38:12.394Z,523.13
2018-05-21T11:39:12.564Z,528.75
2018-05-21T11:40:12.712Z,528.75
2018-05-21T11:41:12.872Z,528.75
2018-05-21T11:42:13.032Z,528.75
2018-05-21T11:43:13.205Z,528.75
2018-05-21T11:44:13.374Z,528.75
2018-05-21T11:45:13.538Z,528.75
2018-05-21T11:46:13.700Z,528.75
2018-05-21T11:47:13.869Z,534.38
2018-05-21T11:48:14.033Z,534.38
2018-05-21T11:49:14.198Z,534.38
2018-05-21T11:50:14.357Z,540.00
2018-05-21T11:51:14.522Z,540.00
2018-05-21T11:52:14.679Z,540.00
2018-05-21T11:53:14.842Z,534.38
2018-05-21T11:54:15.022Z,534.38
2018-05-21T11:55:15.194Z,534.38
2018-05-21T11:56:15.361Z,534.38
2018-05-21T11:57:15.521Z,540.00
2018-05-21T11:58:15.684Z,534.38
2018-05-21T11:59:15.849Z,540.00
2018-05-21T12:00:16.016Z,540.00
2018-05-21T12:01:16.177Z,540.00
2018-05-21T12:02:16.338Z,540.00
2018-05-21T12:03:16.503Z,540.00
2018-05-21T12:04:16.665Z,540.00
2018-05-21T12:05:16.827Z,540.00
2018-05-21T12:06:16.990Z,540.00
2018-05-21T12:07:17.151Z,540.00
2018-05-21T12:08:17.312Z,545.63
2018-05-21T12:09:17.475Z,545.63
2018-05-21T12:10:17.639Z,545.63
2018-05-21T12:11:17.799Z,545.63
2018-05-21T12:12:17.965Z,545.63
2018-05-21T12:13:18.123Z,551.25
2018-05-21T12:14:18.284Z,545.63
2018-05-21T12:15:18.446Z,545.63
2018-05-21T12:16:18.612Z,551.25
2018-05-21T12:17:18.775Z,545.63
2018-05-21T12:18:18.936Z,551.25
2018-05-21T12:19:19.095Z,551.25
2018-05-21T12:20:19.260Z,551.25
2018-05-21T12:21:19.425Z,551.25
2018-05-21T12:22:19.665Z,556.88
2018-05-21T12:23:19.749Z,556.88
2018-05-21T12:24:19.914Z,556.88
2018-05-21T12:25:20.076Z,556.88
2018-05-21T12:26:20.238Z,556.88
2018-05-21T12:27:20.400Z,556.88
2018-05-21T12:28:20.563Z,556.88
2018-05-21T12:29:20.725Z,556.88
2018-05-21T12:30:20.890Z,556.88
2018-05-21T12:31:21.048Z,556.88
2018-05-21T12:32:21.215Z,556.88
2018-05-21T12:33:21.376Z,556.88
2018-05-21T12:34:21.540Z,562.50
2018-05-21T12:35:21.703Z,562.50
2018-05-21T12:36:21.868Z,562.50
2018-05-21T12:37:22.029Z,562.50
2018-05-21T12:38:22.191Z,562.50
2018-05-21T12:39:22.347Z,562.50
2018-05-21T12:40:22.509Z,568.13
2018-05-21T12:41:22.672Z,568.13
2018-05-21T12:42:22.838Z,568.13
2018-05-21T12:43:23.013Z,562.50
2018-05-21T12:44:23.151Z,562.50